sensor_id;sensor_type;location;lat;lon;timestamp;P1;durP1;ratioP1;P2;durP2;ratioP2
4021;SDS011;2025;48.260;16.432;2023-10-13T00:01:09;12.25;;;6.38;;
4021;SDS011;2025;48.260;16.432;2023-10-13T00:03:37;12.93;;;6.45;;
4021;SDS011;2025;48.260;16.432;2023-10-13T00:06:05;11.18;;;5.65;;
4021;SDS011;2025;48.260;16.432;2023-10-13T00:08:33;13.95;;;6.63;;
4021;SDS011;2025;48.260;16.432;2023-10-13T00:11:02;13.18;;;6.88;;
4021;SDS011;2025;48.260;16.432;2023-10-13T00:13:31;13.90;;;7.82;;
4021;SDS011;2025;48.260;16.432;2023-10-13T00:16:07;13.57;;;7.55;;
4021;SDS011;2025;48.260;16.432;2023-10-13T00:18:42;16.98;;;8.15;;
4021;SDS011;2025;48.260;16.432;2023-10-13T00:21:10;13.38;;;7.22;;
4021;SDS011;2025;48.260;16.432;2023-10-13T00:23:45;13.85;;;6.95;;
4021;SDS011;2025;48.260;16.432;2023-10-13T00:26:18;19.48;;;8.55;;
4021;SDS011;2025;48.260;16.432;2023-10-13T00:28:51;12.25;;;5.57;;
4021;SDS011;2025;48.260;16.432;2023-10-13T00:31:24;13.25;;;7.22;;
4021;SDS011;2025;48.260;16.432;2023-10-13T00:33:57;12.75;;;6.88;;
4021;SDS011;2025;48.260;16.432;2023-10-13T00:36:30;15.82;;;8.05;;
4021;SDS011;2025;48.260;16.432;2023-10-13T00:38:59;14.77;;;7.30;;
4021;SDS011;2025;48.260;16.432;2023-10-13T00:41:26;14.10;;;7.60;;
4021;SDS011;2025;48.260;16.432;2023-10-13T00:44:17;12.73;;;7.40;;
4021;SDS011;2025;48.260;16.432;2023-10-13T00:46:50;16.83;;;9.45;;
4021;SDS011;2025;48.260;16.432;2023-10-13T00:49:20;17.13;;;7.65;;
4021;SDS011;2025;48.260;16.432;2023-10-13T00:51:47;14.85;;;7.90;;
4021;SDS011;2025;48.260;16.432;2023-10-13T00:54:15;14.50;;;7.60;;
4021;SDS011;2025;48.260;16.432;2023-10-13T00:56:43;14.85;;;7.07;;
4021;SDS011;2025;48.260;16.432;2023-10-13T00:59:14;15.00;;;8.40;;
4021;SDS011;2025;48.260;16.432;2023-10-13T01:01:42;13.05;;;7.30;;
4021;SDS011;2025;48.260;16.432;2023-10-13T01:04:09;11.57;;;7.53;;
4021;SDS011;2025;48.260;16.432;2023-10-13T01:06:38;14.55;;;6.75;;
4021;SDS011;2025;48.260;16.432;2023-10-13T01:09:06;12.35;;;7.55;;
4021;SDS011;2025;48.260;16.432;2023-10-13T01:11:39;14.25;;;7.28;;
4021;SDS011;2025;48.260;16.432;2023-10-13T01:14:08;16.55;;;8.00;;
4021;SDS011;2025;48.260;16.432;2023-10-13T01:16:36;14.93;;;7.65;;
4021;SDS011;2025;48.260;16.432;2023-10-13T01:19:06;15.73;;;7.65;;
4021;SDS011;2025;48.260;16.432;2023-10-13T01:21:32;16.50;;;7.97;;
4021;SDS011;2025;48.260;16.432;2023-10-13T01:24:01;18.05;;;9.05;;
4021;SDS011;2025;48.260;16.432;2023-10-13T01:26:33;19.63;;;9.32;;
4021;SDS011;2025;48.260;16.432;2023-10-13T01:29:03;16.23;;;8.15;;
4021;SDS011;2025;48.260;16.432;2023-10-13T01:31:37;13.32;;;8.27;;
4021;SDS011;2025;48.260;16.432;2023-10-13T01:34:10;13.15;;;7.95;;
4021;SDS011;2025;48.260;16.432;2023-10-13T01:36:37;11.75;;;6.88;;
4021;SDS011;2025;48.260;16.432;2023-10-13T01:39:07;16.20;;;8.75;;
4021;SDS011;2025;48.260;16.432;2023-10-13T01:41:36;14.65;;;8.55;;
4021;SDS011;2025;48.260;16.432;2023-10-13T01:44:04;15.00;;;8.55;;
4021;SDS011;2025;48.260;16.432;2023-10-13T01:46:30;16.58;;;8.63;;
4021;SDS011;2025;48.260;16.432;2023-10-13T01:49:02;18.45;;;8.90;;
4021;SDS011;2025;48.260;16.432;2023-10-13T01:51:29;14.48;;;8.20;;
4021;SDS011;2025;48.260;16.432;2023-10-13T01:56:24;17.02;;;9.38;;
4021;SDS011;2025;48.260;16.432;2023-10-13T01:58:55;15.25;;;9.05;;
4021;SDS011;2025;48.260;16.432;2023-10-13T02:01:22;19.35;;;9.73;;
4021;SDS011;2025;48.260;16.432;2023-10-13T02:03:55;15.18;;;8.30;;
4021;SDS011;2025;48.260;16.432;2023-10-13T02:06:28;17.50;;;7.85;;
4021;SDS011;2025;48.260;16.432;2023-10-13T02:08:59;17.05;;;9.95;;
4021;SDS011;2025;48.260;16.432;2023-10-13T02:11:36;16.20;;;9.13;;
4021;SDS011;2025;48.260;16.432;2023-10-13T02:14:04;18.02;;;10.45;;
4021;SDS011;2025;48.260;16.432;2023-10-13T02:18:57;14.43;;;8.20;;
4021;SDS011;2025;48.260;16.432;2023-10-13T02:21:29;15.20;;;10.07;;
4021;SDS011;2025;48.260;16.432;2023-10-13T02:23:58;17.60;;;9.88;;
4021;SDS011;2025;48.260;16.432;2023-10-13T02:26:29;16.67;;;9.40;;
4021;SDS011;2025;48.260;16.432;2023-10-13T02:28:59;15.77;;;9.93;;
4021;SDS011;2025;48.260;16.432;2023-10-13T02:31:28;17.98;;;9.85;;
4021;SDS011;2025;48.260;16.432;2023-10-13T02:33:55;14.38;;;8.20;;
4021;SDS011;2025;48.260;16.432;2023-10-13T02:36:21;17.13;;;9.50;;
4021;SDS011;2025;48.260;16.432;2023-10-13T02:39:01;18.50;;;9.88;;
4021;SDS011;2025;48.260;16.432;2023-10-13T02:41:32;15.82;;;9.05;;
4021;SDS011;2025;48.260;16.432;2023-10-13T02:44:03;15.32;;;9.55;;
4021;SDS011;2025;48.260;16.432;2023-10-13T02:46:31;17.85;;;8.65;;
4021;SDS011;2025;48.260;16.432;2023-10-13T02:49:01;15.70;;;8.15;;
4021;SDS011;2025;48.260;16.432;2023-10-13T02:51:34;16.25;;;9.07;;
4021;SDS011;2025;48.260;16.432;2023-10-13T02:54:02;14.70;;;8.57;;
4021;SDS011;2025;48.260;16.432;2023-10-13T02:56:29;15.52;;;9.23;;
4021;SDS011;2025;48.260;16.432;2023-10-13T02:58:56;15.82;;;7.15;;
4021;SDS011;2025;48.260;16.432;2023-10-13T03:01:23;14.57;;;8.38;;
4021;SDS011;2025;48.260;16.432;2023-10-13T03:03:54;21.38;;;9.10;;
4021;SDS011;2025;48.260;16.432;2023-10-13T03:06:21;13.82;;;8.95;;
4021;SDS011;2025;48.260;16.432;2023-10-13T03:08:57;16.08;;;8.82;;
4021;SDS011;2025;48.260;16.432;2023-10-13T03:11:25;13.40;;;8.57;;
4021;SDS011;2025;48.260;16.432;2023-10-13T03:13:57;15.88;;;8.80;;
4021;SDS011;2025;48.260;16.432;2023-10-13T03:16:25;15.18;;;8.27;;
4021;SDS011;2025;48.260;16.432;2023-10-13T03:18:54;14.85;;;8.55;;
4021;SDS011;2025;48.260;16.432;2023-10-13T03:21:21;14.93;;;9.10;;
4021;SDS011;2025;48.260;16.432;2023-10-13T03:23:56;19.52;;;9.60;;
4021;SDS011;2025;48.260;16.432;2023-10-13T03:26:32;16.48;;;8.65;;
4021;SDS011;2025;48.260;16.432;2023-10-13T03:29:09;17.30;;;10.05;;
4021;SDS011;2025;48.260;16.432;2023-10-13T03:31:40;17.20;;;9.43;;
4021;SDS011;2025;48.260;16.432;2023-10-13T03:34:10;14.05;;;7.85;;
4021;SDS011;2025;48.260;16.432;2023-10-13T03:36:38;18.50;;;10.93;;
4021;SDS011;2025;48.260;16.432;2023-10-13T03:39:22;14.48;;;8.15;;
4021;SDS011;2025;48.260;16.432;2023-10-13T03:41:55;15.07;;;9.05;;
4021;SDS011;2025;48.260;16.432;2023-10-13T03:44:24;13.80;;;8.30;;
4021;SDS011;2025;48.260;16.432;2023-10-13T03:46:57;13.52;;;8.07;;
4021;SDS011;2025;48.260;16.432;2023-10-13T03:49:34;16.50;;;9.00;;
4021;SDS011;2025;48.260;16.432;2023-10-13T03:52:03;21.33;;;10.77;;
4021;SDS011;2025;48.260;16.432;2023-10-13T03:54:31;17.10;;;9.80;;
4021;SDS011;2025;48.260;16.432;2023-10-13T03:57:00;18.95;;;9.75;;
4021;SDS011;2025;48.260;16.432;2023-10-13T03:59:36;19.52;;;9.05;;
4021;SDS011;2025;48.260;16.432;2023-10-13T04:02:04;15.70;;;10.40;;
4021;SDS011;2025;48.260;16.432;2023-10-13T04:04:37;21.10;;;12.10;;
4021;SDS011;2025;48.260;16.432;2023-10-13T04:07:13;18.70;;;11.50;;
4021;SDS011;2025;48.260;16.432;2023-10-13T04:10:04;19.48;;;9.90;;
4021;SDS011;2025;48.260;16.432;2023-10-13T04:12:52;17.23;;;9.15;;
4021;SDS011;2025;48.260;16.432;2023-10-13T04:15:36;18.95;;;9.02;;
4021;SDS011;2025;48.260;16.432;2023-10-13T04:18:09;17.10;;;8.10;;
4021;SDS011;2025;48.260;16.432;2023-10-13T04:20:59;16.50;;;8.27;;
4021;SDS011;2025;48.260;16.432;2023-10-13T04:23:44;15.07;;;10.05;;
4021;SDS011;2025;48.260;16.432;2023-10-13T04:26:25;16.67;;;9.25;;
4021;SDS011;2025;48.260;16.432;2023-10-13T04:29:12;17.33;;;9.70;;
4021;SDS011;2025;48.260;16.432;2023-10-13T04:31:58;17.35;;;10.77;;
4021;SDS011;2025;48.260;16.432;2023-10-13T04:34:27;18.90;;;10.05;;
4021;SDS011;2025;48.260;16.432;2023-10-13T04:36:59;21.08;;;10.38;;
4021;SDS011;2025;48.260;16.432;2023-10-13T04:39:48;19.17;;;11.02;;
4021;SDS011;2025;48.260;16.432;2023-10-13T04:42:22;17.25;;;10.48;;
4021;SDS011;2025;48.260;16.432;2023-10-13T04:45:05;18.42;;;10.07;;
4021;SDS011;2025;48.260;16.432;2023-10-13T04:47:52;18.58;;;10.55;;
4021;SDS011;2025;48.260;16.432;2023-10-13T04:50:40;16.88;;;9.85;;
4021;SDS011;2025;48.260;16.432;2023-10-13T04:53:11;17.95;;;10.48;;
4021;SDS011;2025;48.260;16.432;2023-10-13T04:55:53;21.20;;;10.10;;
4021;SDS011;2025;48.260;16.432;2023-10-13T04:58:53;18.75;;;10.00;;
4021;SDS011;2025;48.260;16.432;2023-10-13T05:01:38;15.80;;;9.63;;
4021;SDS011;2025;48.260;16.432;2023-10-13T05:04:25;18.00;;;9.30;;
4021;SDS011;2025;48.260;16.432;2023-10-13T05:07:05;17.05;;;9.95;;
4021;SDS011;2025;48.260;16.432;2023-10-13T05:09:50;16.63;;;9.50;;
4021;SDS011;2025;48.260;16.432;2023-10-13T05:12:34;20.63;;;10.30;;
4021;SDS011;2025;48.260;16.432;2023-10-13T05:15:18;17.85;;;10.50;;
4021;SDS011;2025;48.260;16.432;2023-10-13T05:18:03;18.10;;;10.15;;
4021;SDS011;2025;48.260;16.432;2023-10-13T05:20:48;16.88;;;9.43;;
4021;SDS011;2025;48.260;16.432;2023-10-13T05:23:34;15.50;;;9.70;;
4021;SDS011;2025;48.260;16.432;2023-10-13T05:26:18;17.55;;;10.15;;
4021;SDS011;2025;48.260;16.432;2023-10-13T05:29:03;16.17;;;9.50;;
4021;SDS011;2025;48.260;16.432;2023-10-13T05:31:46;13.65;;;8.80;;
4021;SDS011;2025;48.260;16.432;2023-10-13T05:34:30;14.82;;;9.55;;
4021;SDS011;2025;48.260;16.432;2023-10-13T05:40:00;18.48;;;9.35;;
4021;SDS011;2025;48.260;16.432;2023-10-13T05:42:44;17.35;;;9.25;;
4021;SDS011;2025;48.260;16.432;2023-10-13T05:45:29;17.00;;;10.30;;
4021;SDS011;2025;48.260;16.432;2023-10-13T05:48:26;17.92;;;10.43;;
4021;SDS011;2025;48.260;16.432;2023-10-13T05:51:17;17.58;;;9.85;;
4021;SDS011;2025;48.260;16.432;2023-10-13T05:54:09;16.63;;;9.70;;
4021;SDS011;2025;48.260;16.432;2023-10-13T05:56:55;15.63;;;10.10;;
4021;SDS011;2025;48.260;16.432;2023-10-13T05:59:39;15.95;;;9.82;;
4021;SDS011;2025;48.260;16.432;2023-10-13T06:02:24;15.70;;;9.25;;
4021;SDS011;2025;48.260;16.432;2023-10-13T06:05:23;15.90;;;8.90;;
4021;SDS011;2025;48.260;16.432;2023-10-13T06:08:07;20.30;;;10.55;;
4021;SDS011;2025;48.260;16.432;2023-10-13T06:13:45;19.45;;;11.00;;
4021;SDS011;2025;48.260;16.432;2023-10-13T06:16:31;21.35;;;12.05;;
4021;SDS011;2025;48.260;16.432;2023-10-13T06:21:59;18.67;;;11.70;;
4021;SDS011;2025;48.260;16.432;2023-10-13T06:24:43;23.83;;;11.82;;
4021;SDS011;2025;48.260;16.432;2023-10-13T06:27:28;18.27;;;11.00;;
4021;SDS011;2025;48.260;16.432;2023-10-13T06:30:13;17.48;;;10.57;;
4021;SDS011;2025;48.260;16.432;2023-10-13T06:32:42;19.60;;;11.95;;
4021;SDS011;2025;48.260;16.432;2023-10-13T06:35:11;20.70;;;12.75;;
4021;SDS011;2025;48.260;16.432;2023-10-13T06:37:48;21.42;;;11.70;;
4021;SDS011;2025;48.260;16.432;2023-10-13T06:40:15;19.33;;;11.40;;
4021;SDS011;2025;48.260;16.432;2023-10-13T06:42:58;22.30;;;12.02;;
4021;SDS011;2025;48.260;16.432;2023-10-13T06:45:39;20.38;;;11.50;;
4021;SDS011;2025;48.260;16.432;2023-10-13T06:48:06;17.30;;;10.07;;
4021;SDS011;2025;48.260;16.432;2023-10-13T06:50:38;18.77;;;10.55;;
4021;SDS011;2025;48.260;16.432;2023-10-13T06:53:06;20.85;;;11.32;;
4021;SDS011;2025;48.260;16.432;2023-10-13T06:55:37;22.35;;;11.15;;
4021;SDS011;2025;48.260;16.432;2023-10-13T06:58:05;20.90;;;11.85;;
4021;SDS011;2025;48.260;16.432;2023-10-13T07:00:32;19.10;;;9.90;;
4021;SDS011;2025;48.260;16.432;2023-10-13T07:03:01;24.20;;;12.02;;
4021;SDS011;2025;48.260;16.432;2023-10-13T07:08:03;21.98;;;11.45;;
4021;SDS011;2025;48.260;16.432;2023-10-13T07:10:31;17.90;;;11.02;;
4021;SDS011;2025;48.260;16.432;2023-10-13T07:13:10;20.65;;;10.98;;
4021;SDS011;2025;48.260;16.432;2023-10-13T07:15:38;20.63;;;10.80;;
4021;SDS011;2025;48.260;16.432;2023-10-13T07:18:12;19.17;;;10.57;;
4021;SDS011;2025;48.260;16.432;2023-10-13T07:20:40;16.70;;;9.65;;
4021;SDS011;2025;48.260;16.432;2023-10-13T07:23:10;17.90;;;9.93;;
4021;SDS011;2025;48.260;16.432;2023-10-13T07:25:43;18.38;;;9.38;;
4021;SDS011;2025;48.260;16.432;2023-10-13T07:28:17;15.95;;;8.77;;
4021;SDS011;2025;48.260;16.432;2023-10-13T07:30:44;16.88;;;9.52;;
4021;SDS011;2025;48.260;16.432;2023-10-13T07:33:37;16.48;;;8.52;;
4021;SDS011;2025;48.260;16.432;2023-10-13T07:36:06;16.23;;;8.45;;
4021;SDS011;2025;48.260;16.432;2023-10-13T07:38:41;15.45;;;10.27;;
4021;SDS011;2025;48.260;16.432;2023-10-13T07:41:13;13.48;;;8.00;;
4021;SDS011;2025;48.260;16.432;2023-10-13T07:43:41;16.20;;;8.27;;
4021;SDS011;2025;48.260;16.432;2023-10-13T07:46:10;13.93;;;8.38;;
4021;SDS011;2025;48.260;16.432;2023-10-13T07:48:39;14.57;;;8.35;;
4021;SDS011;2025;48.260;16.432;2023-10-13T07:51:10;14.65;;;7.85;;
4021;SDS011;2025;48.260;16.432;2023-10-13T07:53:41;15.80;;;7.88;;
4021;SDS011;2025;48.260;16.432;2023-10-13T07:56:08;15.07;;;7.65;;
4021;SDS011;2025;48.260;16.432;2023-10-13T07:58:37;16.08;;;7.95;;
4021;SDS011;2025;48.260;16.432;2023-10-13T08:01:13;14.55;;;7.53;;
4021;SDS011;2025;48.260;16.432;2023-10-13T08:03:45;14.00;;;6.68;;
4021;SDS011;2025;48.260;16.432;2023-10-13T08:06:13;16.27;;;7.43;;
4021;SDS011;2025;48.260;16.432;2023-10-13T08:08:51;12.18;;;6.68;;
4021;SDS011;2025;48.260;16.432;2023-10-13T08:11:24;13.38;;;6.78;;
4021;SDS011;2025;48.260;16.432;2023-10-13T08:13:51;14.98;;;7.28;;
4021;SDS011;2025;48.260;16.432;2023-10-13T08:16:23;13.63;;;6.97;;
4021;SDS011;2025;48.260;16.432;2023-10-13T08:18:57;15.30;;;7.25;;
4021;SDS011;2025;48.260;16.432;2023-10-13T08:21:26;11.88;;;5.20;;
4021;SDS011;2025;48.260;16.432;2023-10-13T08:23:57;15.38;;;6.10;;
4021;SDS011;2025;48.260;16.432;2023-10-13T08:26:30;11.82;;;6.13;;
4021;SDS011;2025;48.260;16.432;2023-10-13T08:29:17;12.43;;;5.53;;
4021;SDS011;2025;48.260;16.432;2023-10-13T08:31:58;11.95;;;5.80;;
4021;SDS011;2025;48.260;16.432;2023-10-13T08:34:46;14.73;;;6.13;;
4021;SDS011;2025;48.260;16.432;2023-10-13T08:40:12;13.30;;;6.93;;
4021;SDS011;2025;48.260;16.432;2023-10-13T08:43:10;11.15;;;4.72;;
4021;SDS011;2025;48.260;16.432;2023-10-13T08:45:37;9.25;;;5.18;;
4021;SDS011;2025;48.260;16.432;2023-10-13T08:48:23;10.57;;;4.28;;
4021;SDS011;2025;48.260;16.432;2023-10-13T08:51:02;9.70;;;4.40;;
4021;SDS011;2025;48.260;16.432;2023-10-13T08:53:39;14.98;;;5.15;;
4021;SDS011;2025;48.260;16.432;2023-10-13T08:58:57;13.52;;;3.70;;
4021;SDS011;2025;48.260;16.432;2023-10-13T09:01:33;13.38;;;4.75;;
4021;SDS011;2025;48.260;16.432;2023-10-13T09:04:02;10.98;;;5.25;;
4021;SDS011;2025;48.260;16.432;2023-10-13T09:06:52;10.10;;;3.97;;
4021;SDS011;2025;48.260;16.432;2023-10-13T09:09:47;10.05;;;4.30;;
4021;SDS011;2025;48.260;16.432;2023-10-13T09:12:37;13.20;;;4.60;;
4021;SDS011;2025;48.260;16.432;2023-10-13T09:15:07;11.63;;;4.88;;
4021;SDS011;2025;48.260;16.432;2023-10-13T09:17:45;11.90;;;5.18;;
4021;SDS011;2025;48.260;16.432;2023-10-13T09:20:27;17.60;;;4.80;;
4021;SDS011;2025;48.260;16.432;2023-10-13T09:23:09;9.75;;;3.78;;
4021;SDS011;2025;48.260;16.432;2023-10-13T09:25:38;10.82;;;4.45;;
4021;SDS011;2025;48.260;16.432;2023-10-13T09:28:18;13.88;;;3.78;;
4021;SDS011;2025;48.260;16.432;2023-10-13T09:30:50;8.52;;;3.58;;
4021;SDS011;2025;48.260;16.432;2023-10-13T09:33:19;8.25;;;4.13;;
4021;SDS011;2025;48.260;16.432;2023-10-13T09:35:53;8.20;;;2.50;;
4021;SDS011;2025;48.260;16.432;2023-10-13T09:38:21;9.07;;;3.47;;
4021;SDS011;2025;48.260;16.432;2023-10-13T09:40:48;12.00;;;2.72;;
4021;SDS011;2025;48.260;16.432;2023-10-13T09:43:16;8.85;;;2.65;;
4021;SDS011;2025;48.260;16.432;2023-10-13T09:45:46;7.68;;;2.20;;
4021;SDS011;2025;48.260;16.432;2023-10-13T09:48:31;9.80;;;2.95;;
4021;SDS011;2025;48.260;16.432;2023-10-13T09:51:00;9.20;;;3.47;;
4021;SDS011;2025;48.260;16.432;2023-10-13T09:53:30;7.45;;;2.80;;
4021;SDS011;2025;48.260;16.432;2023-10-13T09:56:01;8.10;;;2.05;;
4021;SDS011;2025;48.260;16.432;2023-10-13T09:58:46;7.07;;;2.22;;
4021;SDS011;2025;48.260;16.432;2023-10-13T10:01:19;9.68;;;2.47;;
4021;SDS011;2025;48.260;16.432;2023-10-13T10:04:06;8.93;;;2.55;;
4021;SDS011;2025;48.260;16.432;2023-10-13T10:06:34;10.73;;;2.60;;
4021;SDS011;2025;48.260;16.432;2023-10-13T10:09:06;7.18;;;2.10;;
4021;SDS011;2025;48.260;16.432;2023-10-13T10:17:26;6.53;;;1.83;;
4021;SDS011;2025;48.260;16.432;2023-10-13T10:19:55;5.72;;;2.03;;
4021;SDS011;2025;48.260;16.432;2023-10-13T10:22:26;5.90;;;1.45;;
4021;SDS011;2025;48.260;16.432;2023-10-13T10:25:00;8.98;;;2.25;;
4021;SDS011;2025;48.260;16.432;2023-10-13T10:27:29;6.93;;;1.40;;
4021;SDS011;2025;48.260;16.432;2023-10-13T10:29:58;8.35;;;1.50;;
4021;SDS011;2025;48.260;16.432;2023-10-13T10:32:33;8.13;;;1.23;;
4021;SDS011;2025;48.260;16.432;2023-10-13T10:35:06;7.38;;;1.85;;
4021;SDS011;2025;48.260;16.432;2023-10-13T10:37:39;7.05;;;1.40;;
4021;SDS011;2025;48.260;16.432;2023-10-13T10:40:14;9.75;;;2.15;;
4021;SDS011;2025;48.260;16.432;2023-10-13T10:42:59;7.82;;;2.03;;
4021;SDS011;2025;48.260;16.432;2023-10-13T10:45:29;8.00;;;2.30;;
4021;SDS011;2025;48.260;16.432;2023-10-13T10:47:59;6.25;;;1.75;;
4021;SDS011;2025;48.260;16.432;2023-10-13T10:50:41;7.22;;;1.50;;
4021;SDS011;2025;48.260;16.432;2023-10-13T10:53:10;6.63;;;1.50;;
4021;SDS011;2025;48.260;16.432;2023-10-13T10:55:38;6.65;;;2.10;;
4021;SDS011;2025;48.260;16.432;2023-10-13T10:58:05;7.55;;;2.00;;
4021;SDS011;2025;48.260;16.432;2023-10-13T11:03:26;8.90;;;1.85;;
4021;SDS011;2025;48.260;16.432;2023-10-13T11:05:55;6.55;;;1.88;;
4021;SDS011;2025;48.260;16.432;2023-10-13T11:08:24;10.38;;;1.63;;
4021;SDS011;2025;48.260;16.432;2023-10-13T11:10:58;5.53;;;1.75;;
4021;SDS011;2025;48.260;16.432;2023-10-13T11:13:26;8.55;;;1.77;;
4021;SDS011;2025;48.260;16.432;2023-10-13T11:15:56;7.47;;;1.23;;
4021;SDS011;2025;48.260;16.432;2023-10-13T11:18:28;7.97;;;2.08;;
4021;SDS011;2025;48.260;16.432;2023-10-13T11:20:59;8.82;;;1.67;;
4021;SDS011;2025;48.260;16.432;2023-10-13T11:25:59;6.88;;;1.50;;
4021;SDS011;2025;48.260;16.432;2023-10-13T11:28:26;7.25;;;1.63;;
4021;SDS011;2025;48.260;16.432;2023-10-13T11:30:53;9.30;;;1.65;;
4021;SDS011;2025;48.260;16.432;2023-10-13T11:33:23;8.73;;;1.40;;
4021;SDS011;2025;48.260;16.432;2023-10-13T11:35:54;7.65;;;2.47;;
4021;SDS011;2025;48.260;16.432;2023-10-13T11:38:27;7.25;;;1.65;;
4021;SDS011;2025;48.260;16.432;2023-10-13T11:41:07;8.90;;;2.13;;
4021;SDS011;2025;48.260;16.432;2023-10-13T11:43:39;9.75;;;2.97;;
4021;SDS011;2025;48.260;16.432;2023-10-13T11:46:18;7.50;;;1.48;;
4021;SDS011;2025;48.260;16.432;2023-10-13T11:49:12;7.35;;;1.58;;
4021;SDS011;2025;48.260;16.432;2023-10-13T11:51:44;8.25;;;1.67;;
4021;SDS011;2025;48.260;16.432;2023-10-13T11:54:12;7.90;;;1.75;;
4021;SDS011;2025;48.260;16.432;2023-10-13T11:56:41;8.68;;;1.77;;
4021;SDS011;2025;48.260;16.432;2023-10-13T11:59:09;6.43;;;1.83;;
4021;SDS011;2025;48.260;16.432;2023-10-13T12:01:42;7.88;;;2.35;;
4021;SDS011;2025;48.260;16.432;2023-10-13T12:04:27;8.55;;;1.92;;
4021;SDS011;2025;48.260;16.432;2023-10-13T12:07:05;10.52;;;1.80;;
4021;SDS011;2025;48.260;16.432;2023-10-13T12:09:42;6.28;;;1.38;;
4021;SDS011;2025;48.260;16.432;2023-10-13T12:12:29;9.30;;;2.13;;
4021;SDS011;2025;48.260;16.432;2023-10-13T12:15:06;9.32;;;1.65;;
4021;SDS011;2025;48.260;16.432;2023-10-13T12:17:39;6.43;;;1.75;;
4021;SDS011;2025;48.260;16.432;2023-10-13T12:20:10;6.22;;;1.60;;
4021;SDS011;2025;48.260;16.432;2023-10-13T12:22:44;9.23;;;2.30;;
4021;SDS011;2025;48.260;16.432;2023-10-13T12:25:20;6.63;;;2.15;;
4021;SDS011;2025;48.260;16.432;2023-10-13T12:28:00;8.32;;;1.75;;
4021;SDS011;2025;48.260;16.432;2023-10-13T12:30:44;9.63;;;1.88;;
4021;SDS011;2025;48.260;16.432;2023-10-13T12:33:18;7.88;;;1.88;;
4021;SDS011;2025;48.260;16.432;2023-10-13T12:35:58;15.13;;;2.80;;
4021;SDS011;2025;48.260;16.432;2023-10-13T12:38:32;7.63;;;2.42;;
4021;SDS011;2025;48.260;16.432;2023-10-13T12:41:37;7.45;;;1.50;;
4021;SDS011;2025;48.260;16.432;2023-10-13T12:44:23;8.70;;;2.28;;
4021;SDS011;2025;48.260;16.432;2023-10-13T12:47:08;9.40;;;2.45;;
4021;SDS011;2025;48.260;16.432;2023-10-13T12:49:52;9.48;;;2.13;;
4021;SDS011;2025;48.260;16.432;2023-10-13T12:52:25;7.40;;;1.67;;
4021;SDS011;2025;48.260;16.432;2023-10-13T12:54:51;6.90;;;1.98;;
4021;SDS011;2025;48.260;16.432;2023-10-13T12:57:24;8.30;;;2.25;;
4021;SDS011;2025;48.260;16.432;2023-10-13T12:59:53;10.15;;;3.15;;
4021;SDS011;2025;48.260;16.432;2023-10-13T13:02:20;10.20;;;2.60;;
4021;SDS011;2025;48.260;16.432;2023-10-13T13:04:50;8.55;;;2.80;;
4021;SDS011;2025;48.260;16.432;2023-10-13T13:07:21;10.60;;;2.28;;
4021;SDS011;2025;48.260;16.432;2023-10-13T13:09:54;8.00;;;2.78;;
4021;SDS011;2025;48.260;16.432;2023-10-13T13:12:23;10.18;;;1.92;;
4021;SDS011;2025;48.260;16.432;2023-10-13T13:14:51;10.55;;;3.75;;
4021;SDS011;2025;48.260;16.432;2023-10-13T13:17:20;9.13;;;4.13;;
4021;SDS011;2025;48.260;16.432;2023-10-13T13:19:47;7.55;;;3.72;;
4021;SDS011;2025;48.260;16.432;2023-10-13T13:22:14;9.93;;;3.55;;
4021;SDS011;2025;48.260;16.432;2023-10-13T13:24:43;8.93;;;2.67;;
4021;SDS011;2025;48.260;16.432;2023-10-13T13:27:10;10.57;;;3.42;;
4021;SDS011;2025;48.260;16.432;2023-10-13T13:29:39;7.32;;;2.05;;
4021;SDS011;2025;48.260;16.432;2023-10-13T13:32:08;9.45;;;1.83;;
4021;SDS011;2025;48.260;16.432;2023-10-13T13:34:43;8.82;;;2.25;;
4021;SDS011;2025;48.260;16.432;2023-10-13T13:37:10;9.90;;;2.30;;
4021;SDS011;2025;48.260;16.432;2023-10-13T13:39:38;7.07;;;2.92;;
4021;SDS011;2025;48.260;16.432;2023-10-13T13:42:10;8.05;;;2.70;;
4021;SDS011;2025;48.260;16.432;2023-10-13T13:44:42;9.23;;;2.28;;
4021;SDS011;2025;48.260;16.432;2023-10-13T13:47:13;8.85;;;2.97;;
4021;SDS011;2025;48.260;16.432;2023-10-13T13:49:42;8.00;;;2.20;;
4021;SDS011;2025;48.260;16.432;2023-10-13T13:52:16;6.90;;;1.83;;
4021;SDS011;2025;48.260;16.432;2023-10-13T13:54:47;9.52;;;2.83;;
4021;SDS011;2025;48.260;16.432;2023-10-13T13:57:13;8.50;;;2.20;;
4021;SDS011;2025;48.260;16.432;2023-10-13T13:59:42;9.38;;;2.50;;
4021;SDS011;2025;48.260;16.432;2023-10-13T14:02:10;9.38;;;2.42;;
4021;SDS011;2025;48.260;16.432;2023-10-13T14:04:46;10.18;;;2.70;;
4021;SDS011;2025;48.260;16.432;2023-10-13T14:07:15;8.45;;;1.85;;
4021;SDS011;2025;48.260;16.432;2023-10-13T14:09:45;6.30;;;1.95;;
4021;SDS011;2025;48.260;16.432;2023-10-13T14:14:55;8.55;;;2.42;;
4021;SDS011;2025;48.260;16.432;2023-10-13T14:17:22;6.00;;;1.65;;
4021;SDS011;2025;48.260;16.432;2023-10-13T14:19:55;7.70;;;2.75;;
4021;SDS011;2025;48.260;16.432;2023-10-13T14:22:23;5.93;;;2.63;;
4021;SDS011;2025;48.260;16.432;2023-10-13T14:24:51;11.23;;;2.78;;
4021;SDS011;2025;48.260;16.432;2023-10-13T14:27:20;12.95;;;2.28;;
4021;SDS011;2025;48.260;16.432;2023-10-13T14:29:48;8.43;;;2.00;;
4021;SDS011;2025;48.260;16.432;2023-10-13T14:32:18;10.50;;;2.40;;
4021;SDS011;2025;48.260;16.432;2023-10-13T14:37:21;7.72;;;2.13;;
4021;SDS011;2025;48.260;16.432;2023-10-13T14:39:53;7.45;;;2.05;;
4021;SDS011;2025;48.260;16.432;2023-10-13T14:42:22;10.77;;;3.58;;
4021;SDS011;2025;48.260;16.432;2023-10-13T14:44:49;6.72;;;2.38;;
4021;SDS011;2025;48.260;16.432;2023-10-13T14:47:20;8.50;;;3.53;;
4021;SDS011;2025;48.260;16.432;2023-10-13T14:49:50;9.55;;;2.13;;
4021;SDS011;2025;48.260;16.432;2023-10-13T14:52:22;13.63;;;1.98;;
4021;SDS011;2025;48.260;16.432;2023-10-13T14:54:49;8.90;;;2.45;;
4021;SDS011;2025;48.260;16.432;2023-10-13T14:57:20;7.70;;;2.70;;
4021;SDS011;2025;48.260;16.432;2023-10-13T14:59:50;9.38;;;2.97;;
4021;SDS011;2025;48.260;16.432;2023-10-13T15:02:17;9.95;;;3.05;;
4021;SDS011;2025;48.260;16.432;2023-10-13T15:04:45;8.95;;;2.55;;
4021;SDS011;2025;48.260;16.432;2023-10-13T15:07:14;7.60;;;2.92;;
4021;SDS011;2025;48.260;16.432;2023-10-13T15:09:43;9.68;;;1.95;;
4021;SDS011;2025;48.260;16.432;2023-10-13T15:12:10;8.75;;;2.50;;
4021;SDS011;2025;48.260;16.432;2023-10-13T15:14:37;7.55;;;2.25;;
4021;SDS011;2025;48.260;16.432;2023-10-13T15:17:04;7.78;;;1.83;;
4021;SDS011;2025;48.260;16.432;2023-10-13T15:19:32;7.40;;;2.08;;
4021;SDS011;2025;48.260;16.432;2023-10-13T15:22:01;7.68;;;2.08;;
4021;SDS011;2025;48.260;16.432;2023-10-13T15:24:31;8.43;;;1.92;;
4021;SDS011;2025;48.260;16.432;2023-10-13T15:27:08;9.70;;;2.13;;
4021;SDS011;2025;48.260;16.432;2023-10-13T15:29:35;9.23;;;2.50;;
4021;SDS011;2025;48.260;16.432;2023-10-13T15:32:02;9.60;;;2.50;;
4021;SDS011;2025;48.260;16.432;2023-10-13T15:34:53;6.93;;;2.95;;
4021;SDS011;2025;48.260;16.432;2023-10-13T15:37:20;7.13;;;2.60;;
4021;SDS011;2025;48.260;16.432;2023-10-13T15:39:50;8.35;;;2.35;;
4021;SDS011;2025;48.260;16.432;2023-10-13T15:42:19;12.60;;;2.17;;
4021;SDS011;2025;48.260;16.432;2023-10-13T15:44:46;10.32;;;3.58;;
4021;SDS011;2025;48.260;16.432;2023-10-13T15:47:15;7.60;;;2.17;;
4021;SDS011;2025;48.260;16.432;2023-10-13T15:49:42;8.05;;;2.33;;
4021;SDS011;2025;48.260;16.432;2023-10-13T15:52:09;6.75;;;1.92;;
4021;SDS011;2025;48.260;16.432;2023-10-13T15:54:36;8.93;;;2.22;;
4021;SDS011;2025;48.260;16.432;2023-10-13T15:57:03;7.57;;;2.67;;
4021;SDS011;2025;48.260;16.432;2023-10-13T15:59:33;8.30;;;2.78;;
4021;SDS011;2025;48.260;16.432;2023-10-13T16:02:00;9.02;;;3.05;;
4021;SDS011;2025;48.260;16.432;2023-10-13T16:04:32;8.63;;;2.20;;
4021;SDS011;2025;48.260;16.432;2023-10-13T16:06:59;7.80;;;2.47;;